Malto Hope — 3FDP4 — position and weather

sailwx.info

Track history (hours):
 
Tides and Currents Weather Stations Pressure Air Temp Water Temp Dewpoint Dewpoint Depression Visibility Wind Speed Wind Dir Waves Ship Positions

Malto Hope

Last reported at 2018-Apr-25 04:48 UTC. Time now 2018-Apr-25 08:43 UTC.
Position N 34°43' E 137°18'.

Length 169 m; draft 6.8 m.

Type: Cargo ship. MMSI: 371372000.

Date/timePositionNaut miles runAvg speedWind from/ knotsBaromVisibWave heightAir tempDewpointWater temp
2018-Apr-25 04:48N 34°43' E 137°18'0 0.0
2018-Apr-25 02:54N 34°43' E 137°18'0 0.0
2018-Apr-25 01:36N 34°43' E 137°18'0 0.0
2018-Apr-25 01:30N 34°43' E 137°18'0 0.0
2018-Apr-25 01:00N 34°43' E 137°18'0 0.0
2018-Apr-25 00:30N 34°43' E 137°18'0 0.0
2018-Apr-24 23:36N 34°43' E 137°18'0 0.0
2018-Apr-24 23:24N 34°43' E 137°18'0 0.0
2018-Apr-24 23:00N 34°43' E 137°18'0 0.4
2018-Apr-24 22:30N 34°43' E 137°18'2 4.9
2018-Apr-24 22:00N 34°44' E 137°16'2 4.2
2018-Apr-24 21:25N 34°44' E 137°13'411.0
2018-Apr-24 21:00N 34°43' E 137°08'510.9
2018-Apr-24 20:30N 34°40' E 137°02'5 9.0
2018-Apr-24 19:56N 34°35' E 136°59'15 7.1
2018-Apr-24 17:48N 34°26' E 137°14'2 5.9
2018-Apr-24 17:30N 34°26' E 137°16'3 6.2
2018-Apr-24 17:00N 34°26' E 137°20'22 8.6
2018-Apr-24 14:28N 34°26' E 137°46'611.3
2018-Apr-24 13:57N 34°27' E 137°53'611.3
2018-Apr-24 13:24N 34°27' E 138°01'411.0
2018-Apr-24 13:00N 34°27' E 138°06'511.0
2018-Apr-24 12:30N 34°27' E 138°13'610.7
2018-Apr-24 11:58N 34°27' E 138°20'510.6
2018-Apr-24 11:30N 34°27' E 138°26'710.7
2018-Apr-24 10:53N 34°28' E 138°34'410.8
2018-Apr-24 10:28N 34°28' E 138°39'610.9
2018-Apr-24 09:54N 34°27' E 138°47'510.3
2018-Apr-24 09:23N 34°29' E 138°53'410.0
2018-Apr-24 09:00N 34°30' E 138°57'5 9.5
2018-Apr-24 08:30N 34°31' E 139°03'5 9.3
2018-Apr-24 08:00N 34°33' E 139°08'4 8.7
2018-Apr-24 07:30N 34°35' E 139°13'4 8.2
2018-Apr-24 07:00N 34°36' E 139°17'5 9.0
2018-Apr-24 06:29N 34°36' E 139°23'4 8.9
2018-Apr-24 06:00N 34°36' E 139°28'5 9.0
2018-Apr-24 05:30N 34°37' E 139°34'5 8.9
2018-Apr-24 05:00N 34°39' E 139°39'4 8.8
2018-Apr-24 04:30N 34°41' E 139°43'710.4
2018-Apr-24 03:49N 34°44' E 139°51'3 9.7
2018-Apr-24 03:30N 34°46' E 139°54'710.9
2018-Apr-24 02:51N 34°50' E 140°01'410.4
2018-Apr-24 02:30N 34°52' E 140°05'510.0
2018-Apr-24 02:00N 34°54' E 140°10'510.0
2018-Apr-24 01:30N 34°57' E 140°15'510.2
2018-Apr-24 00:59N 35°00' E 140°20'5 9.6
2018-Apr-24 00:28N 35°03' E 140°25'  
Track history (hours):
 
Tides and Currents Weather Stations Pressure Air Temp Water Temp Dewpoint Dewpoint Depression Visibility Wind Speed Wind Dir Waves Ship Positions

Malto Hope

Last reported at 2018-Apr-25 04:48 UTC. Time now 2018-Apr-25 08:43 UTC.
Position N 34°43' E 137°18'.

Length 169 m; draft 6.8 m.

Type: Cargo ship. MMSI: 371372000.

Date/timePositionNaut miles runAvg speedWind from/ knotsBaromVisibWave heightAir tempDewpointWater temp
2018-Apr-25 04:48N 34°43' E 137°18'0 0.0
2018-Apr-25 02:54N 34°43' E 137°18'0 0.0
2018-Apr-25 01:36N 34°43' E 137°18'0 0.0
2018-Apr-25 01:30N 34°43' E 137°18'0 0.0
2018-Apr-25 01:00N 34°43' E 137°18'0 0.0
2018-Apr-25 00:30N 34°43' E 137°18'0 0.0
2018-Apr-24 23:36N 34°43' E 137°18'0 0.0
2018-Apr-24 23:24N 34°43' E 137°18'0 0.0
2018-Apr-24 23:00N 34°43' E 137°18'0 0.4
2018-Apr-24 22:30N 34°43' E 137°18'2 4.9
2018-Apr-24 22:00N 34°44' E 137°16'2 4.2
2018-Apr-24 21:25N 34°44' E 137°13'411.0
2018-Apr-24 21:00N 34°43' E 137°08'510.9
2018-Apr-24 20:30N 34°40' E 137°02'5 9.0
2018-Apr-24 19:56N 34°35' E 136°59'15 7.1
2018-Apr-24 17:48N 34°26' E 137°14'2 5.9
2018-Apr-24 17:30N 34°26' E 137°16'3 6.2
2018-Apr-24 17:00N 34°26' E 137°20'22 8.6
2018-Apr-24 14:28N 34°26' E 137°46'611.3
2018-Apr-24 13:57N 34°27' E 137°53'611.3
2018-Apr-24 13:24N 34°27' E 138°01'411.0
2018-Apr-24 13:00N 34°27' E 138°06'511.0
2018-Apr-24 12:30N 34°27' E 138°13'610.7
2018-Apr-24 11:58N 34°27' E 138°20'510.6
2018-Apr-24 11:30N 34°27' E 138°26'710.7
2018-Apr-24 10:53N 34°28' E 138°34'410.8
2018-Apr-24 10:28N 34°28' E 138°39'610.9
2018-Apr-24 09:54N 34°27' E 138°47'510.3
2018-Apr-24 09:23N 34°29' E 138°53'410.0
2018-Apr-24 09:00N 34°30' E 138°57'5 9.5
2018-Apr-24 08:30N 34°31' E 139°03'5 9.3
2018-Apr-24 08:00N 34°33' E 139°08'4 8.7
2018-Apr-24 07:30N 34°35' E 139°13'4 8.2
2018-Apr-24 07:00N 34°36' E 139°17'5 9.0
2018-Apr-24 06:29N 34°36' E 139°23'4 8.9
2018-Apr-24 06:00N 34°36' E 139°28'5 9.0
2018-Apr-24 05:30N 34°37' E 139°34'5 8.9
2018-Apr-24 05:00N 34°39' E 139°39'4 8.8
2018-Apr-24 04:30N 34°41' E 139°43'710.4
2018-Apr-24 03:49N 34°44' E 139°51'3 9.7
2018-Apr-24 03:30N 34°46' E 139°54'710.9
2018-Apr-24 02:51N 34°50' E 140°01'410.4
2018-Apr-24 02:30N 34°52' E 140°05'510.0
2018-Apr-24 02:00N 34°54' E 140°10'510.0
2018-Apr-24 01:30N 34°57' E 140°15'510.2
2018-Apr-24 00:59N 35°00' E 140°20'5 9.6
2018-Apr-24 00:28N 35°03' E 140°25'  

Dump ship's entire track history